Sedgwick Reserve, California Weather observations

Data are for 10 minute period ending at time listed.
 Day   Time   Solar   Ave.   Ave.  Ave.  Vector  Max.   Baro.   Total    
  of    of     Rad.   Air    Rel.  Wind   Wind   Wind  Press.  Precip.   
Year   Day            Temp.  Hum.  Speed  Dir.   Gust                    
2026   (PST)  Kw/m2    F      %     mph   deg.    mph    mb.     in.     
-------------------------------------------------------------------------
 129    9:40   0.81   66.5    63    3.2   158     7.4   973.5    0.00 
 129    9:50   0.83   67.9    61    3.9   181     6.1   973.4    0.00 
 129   10:00   0.85   69.5    58    3.6   173     6.9   973.4    0.00 
 129   10:10   0.87   70.5    57    5.0   179     8.2   973.4    0.00 
 129   10:20   0.89   69.9    57    5.2   185     8.7   973.3    0.00 
 129   10:30   0.90   71.2    55    4.6   219     8.9   973.3    0.00 
 129   10:40   0.91   71.8    54    3.7   234     8.9   973.2    0.00 
 129   10:50   0.92   74.0    51    3.7   250     8.0   973.1    0.00 
 129   11:00   0.90   73.5    52    5.2   248    10.7   973.0    0.00 
 129   11:10   0.93   73.8    52    6.3   204    11.8   972.9    0.00 
 129   11:20   0.91   73.8    53    8.0   214    13.5   972.8    0.00 
 129   11:30   0.92   73.5    54    7.3   193    11.3   972.7    0.00 
 129   11:40   0.95   74.9    52    7.8   204    13.2   972.6    0.00 
 129   11:50   0.95   74.8    52    6.8   216    12.3   972.5    0.00 
 129   12:00   0.96   76.5    50    8.0   230    15.6   972.4    0.00 
 129   12:10   0.95   77.2    49    7.6   251    13.2   972.4    0.00 
 129   12:20   0.95   78.8    47    7.7   284    12.9   972.4    0.00 
 129   12:30   0.95   79.4    46    6.3   264    12.1   972.3    0.00 
 129   12:40   0.95   80.6    41    7.9   314    14.9   972.3    0.00 
 129   12:50   0.94   81.4    41    6.8   300    13.1   972.2    0.00 
 129   13:00   0.93   82.6    38    6.9   301    14.1   972.2    0.00 
 129   13:10   0.92   82.1    38    9.9   307    17.7   972.1    0.00 
 129   13:20   0.91   82.2    37    9.4   314    15.9   972.0    0.00 
 129   13:30   0.90   81.4    38   10.7   282    17.5   971.9    0.00 
 129   13:40   0.89   81.3    38   11.0   289    18.1   971.8    0.00 
 129   13:50   0.87   81.1    38    9.9   270    16.3   971.7    0.00 
 129   14:00   0.85   81.1    37   11.5   288    17.7   971.7    0.00 
 129   14:10   0.84   80.9    37   10.6   288    21.9   971.7    0.00 
 129   14:20   0.81   79.7    37   12.3   278    18.3   971.6    0.00 
 129   14:30   0.79   79.3    38   12.3   282    19.2   971.6    0.00 
 129   14:40   0.77   79.0    39   11.8   275    19.5   971.5    0.00 
 129   14:50   0.75   80.5    38    8.5   283    16.7   971.5    0.00 
 129   15:00   0.72   78.6    40   11.6   291    19.3   971.4    0.00 
 129   15:10   0.69   78.2    40   11.8   287    17.4   971.4    0.00 
 129   15:20   0.67   78.0    40    9.3   293    15.7   971.5    0.00 
 129   15:30   0.64   77.3    39   11.8   291    17.0   971.4    0.00 
 129   15:40   0.61   77.2    39    9.5   290    17.2   971.3    0.00 
 129   15:50   0.58   77.3    40    9.9   282    16.7   971.3    0.00 
 129   16:00   0.54   76.6    41    9.8   287    16.4   971.3    0.00 
 129   16:10   0.51   76.7    42    9.3   280    15.1   971.3    0.00 
 129   16:20   0.48   75.5    44   10.2   283    15.9   971.2    0.00 
 129   16:30   0.44   75.4    43    9.0   294    13.9   971.3    0.00 
 129   16:40   0.41   75.2    43    7.3   283    14.1   971.4    0.00 
 129   16:50   0.38   74.7    43    7.0   297    12.5   971.4    0.00 
 129   17:00   0.34   73.6    44    8.2   286    12.3   971.4    0.00 
 129   17:10   0.31   72.5    43    9.5   274    15.6   971.4    0.00 
 129   17:20   0.27   71.5    46   10.1   284    15.4   971.3    0.00 
 129   17:30   0.24   71.1    47    9.5   284    13.0   971.3    0.00 
 129   17:40   0.20   70.2    49    8.9   286    12.8   971.3    0.00 
 129   17:50   0.17   69.9    51    6.3   291    11.1   971.4    0.00 
 129   18:00   0.14   68.8    54    7.3   283    11.1   971.4    0.00 
 129   18:10   0.10   67.8    56    5.9   275    10.4   971.5    0.00 
 129   18:20   0.07   66.4    59    6.9   282     9.7   971.5    0.00 
 129   18:30   0.04   65.5    62    4.1   249     7.5   971.6    0.00 
 129   18:40   0.02   63.1    68    3.9   140     6.1   971.6    0.00 
 129   18:50   0.01   61.0    72    3.7   157     5.4   971.7    0.00 
 129   19:00   0.00   60.0    75    2.9   148     4.4   971.8    0.00 
 129   19:10   0.00   59.6    76    1.6   145     2.6   971.9    0.00 
 129   19:20   0.00   58.9    77    2.9   137     5.3   972.0    0.00 
 129   19:30   0.00   57.8    80    3.6   130     5.3   972.1    0.00 
 129   19:40   0.00   56.7    82    3.8   132     5.8   972.3    0.00 
 129   19:50   0.00   55.7    85    3.6   127     5.4   972.4    0.00 
 129   20:00   0.00   55.0    86    2.2   109     4.0   972.6    0.00 
 129   20:10   0.00   54.2    88    3.0   127     5.8   972.6    0.00 
 129   20:20   0.00   53.7    90    3.3   132     5.0   972.8    0.00 
 129   20:30   0.00   53.1    91    3.2   119     4.8   972.9    0.00 
 129   20:40   0.00   52.5    92    2.4   106     3.9   973.0    0.00 
 129   20:50   0.00   52.2    93    1.6    97     2.9   973.1    0.00 
 129   21:00   0.00   52.0    93    1.5    77     2.8   973.1    0.00 
 129   21:10   0.00   51.6    94    1.1    62     2.2   973.0    0.00 
 129   21:20   0.00   50.9    94    1.6    24     4.1   973.0    0.00 
 129   21:30   0.00   50.6    95    0.3   213     1.5   973.0    0.00 
 129   21:40   0.00   50.3    95    0.6    91     2.0   973.1    0.00 
 129   21:50   0.00   49.7    95    2.2    58     3.3   973.1    0.00 
 129   22:00   0.00   49.6    96    1.0    63     2.7   973.1    0.00 
 129   22:10   0.00   49.4    96    1.0    22     3.5   973.0    0.00 
 129   22:20   0.00   49.1    97    2.8    15     4.6   973.0    0.00 
 129   22:30   0.00   49.7    97    0.8    78     2.2   973.0    0.00 
 129   22:40   0.00   50.0    98    1.2    47     3.7   973.1    0.00 
 129   22:50   0.00   49.9    98    0.8   343     2.3   973.0    0.00 
 129   23:00   0.00   49.5    98    1.3     4     3.4   973.0    0.00 
 129   23:10   0.00   49.2    99    0.8    20     3.2   973.1    0.00 
 129   23:20   0.00   48.8    99    0.4    40     1.5   973.0    0.00 
 129   23:30   0.00   48.5    99    0.2   285     1.5   972.9    0.00 
 129   23:40   0.00   48.3    99    0.4    22     2.3   973.0    0.00 
 129   23:50   0.00   47.5    99    1.4    24     3.1   973.0    0.00 
 130    0:00   0.00   46.8    99    1.2    24     3.6   972.9    0.00 
 130    0:10   0.00   46.3   100    0.8   280     3.1   972.8    0.00 
 130    0:20   0.00   46.3   100    0.5   264     1.8   972.8    0.00 
 130    0:30   0.00   46.1   100    0.8   348     3.7   972.7    0.00 
 130    0:40   0.00   45.6   100    1.9     2     3.8   972.7    0.00 
 130    0:50   0.00   45.5   100    1.6    11     2.8   972.7    0.00 
 130    1:00   0.00   45.6   100    2.2    12     3.8   972.6    0.00 
 130    1:10   0.00   45.6   100    2.6     4     4.5   972.6    0.00 
 130    1:20   0.00   46.2   100    1.3     9     2.5   972.6    0.00 
 130    1:30   0.00   45.9   100    2.0   356     3.4   972.6    0.00 
 130    1:40   0.00   46.1   100    2.4    16     4.7   972.5    0.00 
 130    1:50   0.00   45.7   100    3.9    15     5.6   972.5    0.00 
 130    2:00   0.00   46.1   100    1.8     3     4.0   972.4    0.00 
 130    2:10   0.00   46.6   100    1.1    22     2.7   972.3    0.00 
 130    2:20   0.00   46.3   100    2.5     7     3.3   972.2    0.00 
 130    2:30   0.00   46.5   100    2.2    15     3.5   972.2    0.00 
 130    2:40   0.00   46.3   100    3.6    25     4.6   972.2    0.00 
 130    2:50   0.00   46.2   100    2.6    23     4.2   972.2    0.00 
 130    3:00   0.00   46.3   100    1.9    15     3.4   972.4    0.00 
 130    3:10   0.00   46.1   100    2.8    16     4.4   972.4    0.00 
 130    3:20   0.00   45.7   100    3.2    15     4.3   972.3    0.00 
 130    3:30   0.00   45.1   100    4.1    16     5.6   972.3    0.00 
 130    3:40   0.00   44.7   100    2.3    16     3.4   972.3    0.00 
 130    3:50   0.00   44.6   100    2.6    18     4.0   972.3    0.00 
 130    4:00   0.00   44.3   100    2.3    18     3.1   972.3    0.00 
 130    4:10   0.00   44.2   100    1.2    16     2.4   972.2    0.00 
 130    4:20   0.00   44.2   100    1.5    14     2.2   972.2    0.00 
 130    4:30   0.00   43.7   100    1.6     4     2.7   972.1    0.00 
 130    4:40   0.00   43.4   100    0.3   297     1.3   972.2    0.00 
 130    4:50   0.00   42.9   100    1.3     6     2.7   972.3    0.00 
 130    5:00   0.00   42.3   100    2.9     8     4.0   972.5    0.00 
 130    5:10   0.01   42.2   100    2.7    17     3.6   972.5    0.00 
 130    5:20   0.01   42.0   100    1.1    23     3.7   972.5    0.00 
 130    5:30   0.01   42.4   100    0.5   278     2.1   972.6    0.00 
 130    5:40   0.02   42.6   100    1.8   332     2.6   972.6    0.00 
 130    5:50   0.05   42.7   100    0.6     2     2.0   972.8    0.00 
 130    6:00   0.08   43.8   100    1.3    33     2.2   973.0    0.00 
 130    6:10   0.10   44.3   100    0.2    38     1.5   973.1    0.00 
 130    6:20   0.16   45.5   100    1.1    36     2.4   973.2    0.00 
 130    6:30   0.20   46.8   100    0.1   111     1.2   973.1    0.00 
 130    6:40   0.25   48.7   100    0.4    60     1.8   973.0    0.00 
 130    6:50   0.29   49.7   100    0.9   149     2.6   973.1    0.00 
 130    7:00   0.33   51.3   100    1.0    94     2.5   973.2    0.00 
 130    7:10   0.37   51.9   100    0.6   166     1.8   973.2    0.00 
 130    7:20   0.41   53.3   100    0.9   170     2.0   973.2    0.00 
 130    7:30   0.44   54.2   100    1.4   153     3.8   973.2    0.00 
 130    7:40   0.47   55.6    99    1.2   160     2.9   973.1    0.00 
 130    7:50   0.51   56.9    94    2.2   148     3.7   973.1    0.00 
 130    8:00   0.54   59.1    85    2.9   150     5.0   973.0    0.00 
 130    8:10   0.57   60.8    78    3.4   135     5.8   973.1    0.00 
 130    8:20   0.60   62.9    73    3.0   138     5.1   973.1    0.00 
 130    8:30   0.63   63.8    71    2.9   145     5.1   973.2    0.00 
 130    8:40   0.66   66.2    66    1.8   163     4.3   973.1    0.00 
 130    8:50   0.69   68.0    63    3.4   137     7.2   973.1    0.00 
 130    9:00   0.72   69.0    61    4.5   131     8.8   973.1    0.00 
 130    9:10   0.75   70.4    59    4.6   132     8.2   973.0    0.00 
 130    9:20   0.77   71.3    57    4.9   138     8.8   973.0    0.00 
 130    9:30   0.80   71.1    57    4.5   176     7.6   973.1    0.00 

Return to Sedgwick Reserve graphs page.


Western Regional Climate Center,wrcc@dri.edu